Terminal Aerodrome Forecast
Issued by NWS

Current Version | Previous Version | Graphics & Text | Print | Product List | Glossary On
Versions: 1 2 3 4 5 6 7 8 9 10 11 12 13 14 15 16 17 18
000
FTUS41 KILN 171700
TAFLUK
TAF
KLUK 171722Z 1718/1818 21010G16KT P6SM SCT250
     FM172200 19006KT P6SM BKN250
     FM180300 00000KT P6SM OVC250
     FM180900 00000KT P6SM BKN050
     FM181500 26006KT P6SM BKN050=

USA.gov is the U.S. government's official web portal to all federal, state and local government web resources and services.